logo
Search for airport 
image banner adimage banner adimage banner ad
image banner ad

LIKD - Torraccia

Located in Domagnano, San Marino

ICAO - , IATA -

Data provided by Airmate  

General information

Coordinates: N43°57'0" E12°30'39"
Elevation is 787 feet MSL.
Magnetic variation is 3° East
View others Airports in Domagnano

Operational data

Special qualification required
Current time UTC:
Current local time:
Weather at : LIPR - Rimini/Miramare ( 11 km )
METAR: LIPR 241750Z 19003KT 160V220 CAVOK 09/07 Q1006
TAF: TAF LIPR 241700Z 2418/2518 16006KT 9999 SCT030 BECMG 2421/2423 27011KT BECMG 2508/2510 33011KT BECMG 2513/2515 03007KT
View NOTAMs / SUP AIP / TFR affecting this airport [VIEW]
Communications frequencies: [VIEW]

Runways:

RWY identifierQFULength (ft)Width (ft)SurfaceLDA (ft)
16162°20020GRAS
34342°20020GRAS

Airport contact information

Address: Domagnano San Marino

Satellite view of LIKD